Time;durP1;ratioP1;P1;durP2;ratioP2;P2;SDS_P1;SDS_P2;PMS_P1;PMS_P2;Temp;Humidity;BMP_temperature;BMP_pressure;BME280_temperature;BME280_humidity;BME280_pressure;Samples;Min_cycle;Max_cycle;Signal;HPM_P1;HPM_P2
2024/03/01 00:01:23;;;;;;;26.30;18.07;;;8.30;99.90;;;;;;5055768;28;21301;-81
2024/03/01 00:03:51;;;;;;;23.70;16.30;;;8.30;99.90;;;;;;5058357;28;20479;-79
2024/03/01 00:06:19;;;;;;;27.03;17.73;;;8.30;99.90;;;;;;5058542;28;20491;-80
2024/03/01 00:08:48;;;;;;;28.97;17.50;;;8.30;99.90;;;;;;5051647;28;20513;-80
2024/03/01 00:11:16;;;;;;;24.70;16.97;;;8.40;99.90;;;;;;5057885;28;20447;-80
2024/03/01 00:13:46;;;;;;;25.00;17.77;;;8.50;99.90;;;;;;5057695;28;20482;-79
2024/03/01 00:16:14;;;;;;;25.60;18.07;;;8.70;99.90;;;;;;5055708;28;20992;-80
2024/03/01 00:18:43;;;;;;;32.13;17.70;;;8.70;99.90;;;;;;5056717;28;20609;-80
2024/03/01 00:21:15;;;;;;;26.27;19.20;;;8.80;99.90;;;;;;5057322;28;20541;-81
2024/03/01 00:23:43;;;;;;;20.83;15.47;;;8.70;99.90;;;;;;5056001;28;21109;-80
2024/03/01 00:26:12;;;;;;;21.80;15.67;;;8.70;99.90;;;;;;5055835;28;20464;-79
2024/03/01 00:28:40;;;;;;;21.13;16.07;;;8.70;99.90;;;;;;5050499;28;20442;-79
2024/03/01 00:31:10;;;;;;;21.87;15.70;;;8.60;99.90;;;;;;5051717;28;20457;-80
2024/03/01 00:33:38;;;;;;;25.00;17.20;;;8.50;99.90;;;;;;5051324;28;20498;-82
2024/03/01 00:36:07;;;;;;;28.07;17.70;;;8.50;99.90;;;;;;5051258;28;20489;-79
2024/03/01 00:38:35;;;;;;;24.33;17.30;;;8.60;99.90;;;;;;5055689;28;21143;-81
2024/03/01 00:41:04;;;;;;;25.10;16.47;;;8.60;99.90;;;;;;5055071;28;20463;-80
2024/03/01 00:43:33;;;;;;;23.43;16.00;;;8.60;99.90;;;;;;5045913;28;20486;-81
2024/03/01 00:46:01;;;;;;;24.70;15.40;;;8.50;99.90;;;;;;5053524;28;20475;-81
2024/03/01 00:48:32;;;;;;;22.60;15.37;;;8.50;99.90;;;;;;5054319;28;20458;-81
2024/03/01 00:51:01;;;;;;;21.50;14.70;;;8.60;99.90;;;;;;5061653;28;20470;-81
2024/03/01 00:53:29;;;;;;;22.00;15.97;;;8.50;99.90;;;;;;5057930;28;20970;-83
2024/03/01 00:55:57;;;;;;;21.97;16.47;;;8.40;99.90;;;;;;5057502;28;20541;-79
2024/03/01 00:58:25;;;;;;;22.47;16.37;;;8.40;99.90;;;;;;5056957;28;20462;-79
2024/03/01 01:00:54;;;;;;;26.27;16.50;;;8.30;99.90;;;;;;5053918;28;20466;-80
2024/03/01 01:03:22;;;;;;;23.20;16.60;;;8.30;99.90;;;;;;5056053;28;20473;-80
2024/03/01 01:05:52;;;;;;;24.20;17.17;;;8.20;99.90;;;;;;5054191;28;20469;-82
2024/03/01 01:08:20;;;;;;;24.77;18.23;;;8.20;99.90;;;;;;5057142;28;20480;-81
2024/03/01 01:10:48;;;;;;;24.33;16.10;;;8.30;99.90;;;;;;5059574;28;20459;-81
2024/03/01 01:13:17;;;;;;;26.43;18.40;;;8.40;99.90;;;;;;5056264;28;20526;-78
2024/03/01 01:15:45;;;;;;;24.60;16.40;;;8.40;99.90;;;;;;5057169;28;20466;-81
2024/03/01 01:18:16;;;;;;;26.07;17.40;;;8.40;99.90;;;;;;5054425;28;20450;-82
2024/03/01 01:20:45;;;;;;;23.00;16.77;;;8.40;99.90;;;;;;5056103;28;20441;-81
2024/03/01 01:23:15;;;;;;;21.60;15.53;;;8.30;99.90;;;;;;5053196;28;20486;-81
2024/03/01 01:25:43;;;;;;;26.97;17.03;;;8.30;99.90;;;;;;5054061;28;20995;-81
2024/03/01 01:28:11;;;;;;;25.37;16.10;;;8.20;99.90;;;;;;5053276;28;20551;-80
2024/03/01 01:30:40;;;;;;;23.10;17.10;;;8.30;1.00;;;;;;5054207;28;20466;-82
2024/03/01 01:33:09;;;;;;;23.73;16.73;;;8.30;99.90;;;;;;5057314;28;20536;-82
2024/03/01 01:35:37;;;;;;;26.70;18.30;;;8.30;1.00;;;;;;5057983;28;20994;-82
2024/03/01 01:38:05;;;;;;;25.40;16.23;;;8.40;1.00;;;;;;5054868;28;20514;-81
2024/03/01 01:40:35;;;;;;;30.63;17.83;;;8.40;99.90;;;;;;5053994;28;20469;-81
2024/03/01 01:43:06;;;;;;;28.83;17.87;;;8.40;1.00;;;;;;5060823;28;20475;-82
2024/03/01 01:45:35;;;;;;;26.80;18.00;;;8.60;99.90;;;;;;5063919;28;20544;-81
2024/03/01 01:48:04;;;;;;;25.40;16.33;;;8.70;99.90;;;;;;5064784;28;20482;-79
2024/03/01 01:50:33;;;;;;;24.47;17.87;;;8.70;99.90;;;;;;5063075;28;20464;-80
2024/03/01 01:53:03;;;;;;;25.90;16.97;;;8.60;99.90;;;;;;5059043;28;20455;-81
2024/03/01 01:55:45;;;;;;;28.53;17.60;;;8.50;99.90;;;;;;5057083;28;20466;-82
2024/03/01 01:58:14;;;;;;;23.23;17.47;;;8.50;99.90;;;;;;5057978;28;20450;-80
2024/03/01 02:00:42;;;;;;;20.53;16.77;;;8.50;99.90;;;;;;5054720;28;20461;-82
2024/03/01 02:03:11;;;;;;;24.70;17.80;;;8.50;99.90;;;;;;5057326;28;20586;-80
2024/03/01 02:05:41;;;;;;;29.97;18.60;;;8.50;99.90;;;;;;5058447;28;21187;-81
2024/03/01 02:08:09;;;;;;;25.90;17.57;;;8.50;99.90;;;;;;5058903;28;20542;-80
2024/03/01 02:10:38;;;;;;;30.43;17.43;;;8.50;99.90;;;;;;5057824;28;20447;-81
2024/03/01 02:13:18;;;;;;;25.10;16.63;;;8.50;99.90;;;;;;5058593;28;20450;-80
2024/03/01 02:15:51;;;;;;;24.50;17.57;;;8.40;99.90;;;;;;5058414;28;20490;-80
2024/03/01 02:18:20;;;;;;;26.70;17.67;;;8.40;99.90;;;;;;5055327;28;20454;-80
2024/03/01 02:21:01;;;;;;;25.93;18.80;;;8.50;1.00;;;;;;5056312;28;20498;-80
2024/03/01 02:23:31;;;;;;;26.67;17.67;;;8.60;99.90;;;;;;5057577;28;20516;-81
2024/03/01 02:25:59;;;;;;;27.47;17.90;;;8.50;99.90;;;;;;5058426;28;21026;-81
2024/03/01 02:28:28;;;;;;;27.30;17.43;;;8.50;99.90;;;;;;5058568;28;20473;-80
2024/03/01 02:30:56;;;;;;;25.13;17.43;;;8.50;99.90;;;;;;5053704;28;20474;-78
2024/03/01 02:33:25;;;;;;;26.33;18.00;;;8.50;99.90;;;;;;5057147;28;20445;-80
2024/03/01 02:35:55;;;;;;;29.77;18.93;;;8.40;99.90;;;;;;5059863;28;20941;-81
2024/03/01 02:38:28;;;;;;;25.47;18.07;;;8.50;99.90;;;;;;5056346;28;20999;-81
2024/03/01 02:40:57;;;;;;;29.83;19.77;;;8.50;99.90;;;;;;5057099;28;20447;-80
2024/03/01 02:43:25;;;;;;;25.00;17.10;;;8.40;99.90;;;;;;5059039;28;20485;-79
2024/03/01 02:45:54;;;;;;;26.40;17.50;;;8.50;99.90;;;;;;5059676;28;20468;-81
2024/03/01 02:48:22;;;;;;;22.37;16.97;;;8.60;99.90;;;;;;5057206;28;20534;-80
2024/03/01 02:50:50;;;;;;;21.47;16.57;;;8.60;99.90;;;;;;5055576;28;20468;-79
2024/03/01 02:53:18;;;;;;;25.73;18.10;;;8.50;99.90;;;;;;5056732;28;20464;-80
2024/03/01 02:55:46;;;;;;;28.77;17.27;;;8.40;99.90;;;;;;5056390;28;20476;-80
2024/03/01 02:58:16;;;;;;;27.37;18.87;;;8.40;99.90;;;;;;5058389;28;20534;-80
2024/03/01 03:00:44;;;;;;;29.80;17.70;;;8.30;1.00;;;;;;5054026;28;20461;-78
2024/03/01 03:03:12;;;;;;;26.37;17.87;;;8.40;99.90;;;;;;5056353;28;20449;-78
2024/03/01 03:05:40;;;;;;;24.60;17.47;;;8.40;1.00;;;;;;5054401;28;20491;-80
2024/03/01 03:08:08;;;;;;;28.50;18.37;;;8.40;1.00;;;;;;5052746;28;20469;-79
2024/03/01 03:10:37;;;;;;;27.17;17.33;;;8.40;1.00;;;;;;5052561;28;20464;-79
2024/03/01 03:13:06;;;;;;;26.17;17.70;;;8.40;1.00;;;;;;5055357;28;20487;-79
2024/03/01 03:15:35;;;;;;;23.30;17.00;;;8.40;1.00;;;;;;5052188;28;20463;-80
2024/03/01 03:18:04;;;;;;;23.97;16.97;;;8.40;1.00;;;;;;5057613;28;20458;-79
2024/03/01 03:20:35;;;;;;;25.87;18.40;;;8.30;1.00;;;;;;5054557;28;20446;-79
2024/03/01 03:23:04;;;;;;;26.77;18.57;;;8.30;1.00;;;;;;5051656;28;20487;-78
2024/03/01 03:25:32;;;;;;;23.77;16.07;;;8.40;1.00;;;;;;5054646;28;20999;-79
2024/03/01 03:28:01;;;;;;;27.23;17.70;;;8.40;1.00;;;;;;5058743;28;20447;-79
2024/03/01 03:30:29;;;;;;;24.07;16.07;;;8.40;1.00;;;;;;5057244;28;20466;-80
2024/03/01 03:32:58;;;;;;;26.63;18.87;;;8.40;1.00;;;;;;5056082;28;20465;-79
2024/03/01 03:35:26;;;;;;;28.87;18.33;;;8.40;1.00;;;;;;5054328;28;20458;-81
2024/03/01 03:37:55;;;;;;;27.30;18.13;;;8.40;1.00;;;;;;5052530;28;20461;-79
2024/03/01 03:40:23;;;;;;;28.87;18.20;;;8.40;1.00;;;;;;5053076;28;20478;-79
2024/03/01 03:42:51;;;;;;;24.60;17.53;;;8.30;1.00;;;;;;5054928;28;21031;-79
2024/03/01 03:45:19;;;;;;;25.73;18.37;;;8.40;1.00;;;;;;5058022;28;20517;-79
2024/03/01 03:47:47;;;;;;;28.60;17.27;;;8.40;1.00;;;;;;5056441;28;20463;-79
2024/03/01 03:50:17;;;;;;;26.50;18.03;;;8.40;1.00;;;;;;5054656;28;20465;-80
2024/03/01 03:52:45;;;;;;;27.53;18.43;;;8.40;1.00;;;;;;5055805;28;20455;-79
2024/03/01 03:55:13;;;;;;;27.30;17.60;;;8.40;1.00;;;;;;5053612;28;20470;-80
2024/03/01 03:57:41;;;;;;;28.93;19.03;;;8.50;1.00;;;;;;5050436;28;20535;-79
2024/03/01 04:00:14;;;;;;;22.43;16.33;;;8.50;1.00;;;;;;5055025;28;20887;-80
2024/03/01 04:02:44;;;;;;;26.40;19.30;;;8.50;1.00;;;;;;5052393;28;20521;-79
2024/03/01 04:05:12;;;;;;;25.83;17.67;;;8.50;1.00;;;;;;5058950;28;20553;-80
2024/03/01 04:07:42;;;;;;;30.43;19.27;;;8.50;1.00;;;;;;5062704;28;20446;-77
2024/03/01 04:10:11;;;;;;;25.87;17.67;;;8.50;1.00;;;;;;5056232;28;20442;-79
2024/03/01 04:12:39;;;;;;;27.53;17.63;;;8.40;1.00;;;;;;5055213;28;20529;-80
2024/03/01 04:15:08;;;;;;;28.63;18.30;;;8.30;1.00;;;;;;5057975;28;20471;-80
2024/03/01 04:17:36;;;;;;;29.67;19.50;;;8.40;1.00;;;;;;5057340;28;20451;-79
2024/03/01 04:20:06;;;;;;;24.07;19.53;;;8.40;1.00;;;;;;5053731;28;20527;-79
2024/03/01 04:22:34;;;;;;;26.83;16.90;;;8.50;1.00;;;;;;5057060;28;20457;-77
2024/03/01 04:25:05;;;;;;;29.60;18.57;;;8.50;1.00;;;;;;5058639;28;20592;-79
2024/03/01 04:27:34;;;;;;;28.20;19.57;;;8.50;1.00;;;;;;5054873;28;20455;-81
2024/03/01 04:30:02;;;;;;;26.87;17.50;;;8.50;1.00;;;;;;5050712;28;20546;-80
2024/03/01 04:32:30;;;;;;;25.43;18.20;;;8.50;1.00;;;;;;5056347;28;20540;-81
2024/03/01 04:34:59;;;;;;;25.37;17.60;;;8.40;1.00;;;;;;5060079;28;20468;-79
2024/03/01 04:37:27;;;;;;;26.70;18.77;;;8.40;1.00;;;;;;5055433;28;20923;-80
2024/03/01 04:39:55;;;;;;;29.87;18.47;;;8.40;1.00;;;;;;5057391;28;20448;-80
2024/03/01 04:42:26;;;;;;;25.53;18.07;;;8.40;1.00;;;;;;5057896;28;20455;-80
2024/03/01 04:44:54;;;;;;;26.93;17.90;;;8.40;1.00;;;;;;5057679;28;20490;-82
2024/03/01 04:47:22;;;;;;;24.87;17.67;;;8.40;1.00;;;;;;5059295;28;20470;-80
2024/03/01 04:49:51;;;;;;;28.30;19.10;;;8.40;1.00;;;;;;5052827;28;20460;-81
2024/03/01 04:52:19;;;;;;;23.27;16.60;;;8.40;1.00;;;;;;5054943;28;20471;-80
2024/03/01 04:54:47;;;;;;;25.40;18.23;;;8.40;1.00;;;;;;5055448;28;20477;-81
2024/03/01 04:57:16;;;;;;;27.43;18.23;;;8.30;1.00;;;;;;5054086;28;20453;-81
2024/03/01 04:59:45;;;;;;;25.60;18.23;;;8.30;1.00;;;;;;5055264;28;20712;-82
2024/03/01 05:02:13;;;;;;;29.97;18.37;;;8.40;1.00;;;;;;5048190;28;20458;-80
2024/03/01 05:04:42;;;;;;;26.63;20.17;;;8.40;1.00;;;;;;5055563;28;20503;-81
2024/03/01 05:07:11;;;;;;;28.17;18.70;;;8.40;1.00;;;;;;5054637;28;20461;-79
2024/03/01 05:09:42;;;;;;;26.07;17.97;;;8.50;1.00;;;;;;5056064;28;20465;-81
2024/03/01 05:12:14;;;;;;;27.33;19.43;;;8.60;1.00;;;;;;5054175;28;20459;-81
2024/03/01 05:14:42;;;;;;;27.83;18.70;;;8.70;1.00;;;;;;5054682;28;20531;-81
2024/03/01 05:17:13;;;;;;;29.47;20.23;;;8.60;1.00;;;;;;5058041;28;20499;-80
2024/03/01 05:19:41;;;;;;;28.83;19.77;;;8.60;1.00;;;;;;5054047;28;20467;-81
2024/03/01 05:22:12;;;;;;;30.97;19.57;;;8.60;1.00;;;;;;5053097;28;21186;-80
2024/03/01 05:24:41;;;;;;;26.33;18.13;;;8.70;1.00;;;;;;5056991;28;20513;-81
2024/03/01 05:27:12;;;;;;;31.07;19.50;;;8.60;1.00;;;;;;5056543;28;20440;-83
2024/03/01 05:29:41;;;;;;;24.20;19.30;;;8.60;1.00;;;;;;5058737;28;20456;-81
2024/03/01 05:32:11;;;;;;;29.80;21.27;;;8.60;1.00;;;;;;5056202;28;20459;-81
2024/03/01 05:34:41;;;;;;;31.30;21.03;;;8.60;1.00;;;;;;5056346;28;20463;-77
2024/03/01 05:37:09;;;;;;;26.57;20.37;;;8.60;1.00;;;;;;5055183;28;20500;-79
2024/03/01 05:39:37;;;;;;;28.33;19.63;;;8.60;1.00;;;;;;5055450;28;20447;-78
2024/03/01 05:42:06;;;;;;;27.67;17.60;;;8.60;1.00;;;;;;5055520;28;20538;-76
2024/03/01 05:44:35;;;;;;;26.07;18.20;;;8.70;1.00;;;;;;5053429;28;20558;-78
2024/03/01 05:47:04;;;;;;;26.73;18.60;;;8.60;1.00;;;;;;5056265;28;21008;-76
2024/03/01 05:49:33;;;;;;;25.10;18.17;;;8.70;1.00;;;;;;5054952;28;20466;-78
2024/03/01 05:52:03;;;;;;;26.20;18.80;;;8.70;1.00;;;;;;5059540;28;20445;-76
2024/03/01 05:54:32;;;;;;;26.67;19.00;;;8.70;1.00;;;;;;5057608;28;20987;-78
2024/03/01 05:57:00;;;;;;;31.03;19.73;;;8.80;1.00;;;;;;5053475;28;20454;-77
2024/03/01 05:59:28;;;;;;;31.70;20.00;;;8.60;1.00;;;;;;5051976;28;20454;-79
2024/03/01 06:01:56;;;;;;;31.37;20.40;;;8.60;1.00;;;;;;5051453;28;20553;-76
2024/03/01 06:04:24;;;;;;;28.87;18.97;;;8.50;1.00;;;;;;5059157;28;20995;-77
2024/03/01 06:06:57;;;;;;;29.57;20.20;;;8.60;1.00;;;;;;5051880;28;21227;-77
2024/03/01 06:09:25;;;;;;;29.93;19.20;;;8.60;1.00;;;;;;5051841;28;20569;-77
2024/03/01 06:11:53;;;;;;;35.57;20.23;;;8.60;1.00;;;;;;5049523;28;20462;-81
2024/03/01 06:14:21;;;;;;;25.80;18.63;;;8.60;1.00;;;;;;5052344;28;20481;-78
2024/03/01 06:16:51;;;;;;;27.50;18.47;;;8.60;1.00;;;;;;5055084;28;20467;-78
2024/03/01 06:19:19;;;;;;;29.23;18.73;;;8.70;1.00;;;;;;5055746;28;21180;-79
2024/03/01 06:21:47;;;;;;;25.73;17.70;;;8.80;1.00;;;;;;5057775;28;20578;-78
2024/03/01 06:24:17;;;;;;;26.30;19.73;;;8.80;1.00;;;;;;5054737;28;20464;-78
2024/03/01 06:26:45;;;;;;;25.83;19.10;;;8.80;1.00;;;;;;5052066;28;20482;-77
2024/03/01 06:29:13;;;;;;;25.37;17.70;;;8.70;1.00;;;;;;5058362;28;20446;-77
2024/03/01 06:31:41;;;;;;;28.77;20.67;;;8.70;1.00;;;;;;5051508;28;20941;-79
2024/03/01 06:34:09;;;;;;;30.80;20.03;;;8.70;1.00;;;;;;5052507;28;20197;-78
2024/03/01 06:36:38;;;;;;;26.00;17.40;;;8.70;1.00;;;;;;5055593;28;20487;-78
2024/03/01 06:39:08;;;;;;;26.03;18.30;;;8.80;1.00;;;;;;5056398;28;20455;-77
2024/03/01 06:41:38;;;;;;;22.97;17.23;;;8.90;1.00;;;;;;5054851;28;20460;-79
2024/03/01 06:44:06;;;;;;;27.80;18.50;;;8.90;1.00;;;;;;5060043;28;20467;-77
2024/03/01 06:46:34;;;;;;;24.27;17.20;;;8.90;1.00;;;;;;5056148;28;20489;-78
2024/03/01 06:49:03;;;;;;;24.30;16.37;;;9.10;1.00;;;;;;5057497;28;20629;-78
2024/03/01 06:51:31;;;;;;;23.30;16.17;;;9.00;1.00;;;;;;5055695;28;20577;-77
2024/03/01 06:53:59;;;;;;;20.70;17.20;;;9.00;99.90;;;;;;5056649;28;20474;-78
2024/03/01 06:56:27;;;;;;;25.70;17.00;;;9.00;1.00;;;;;;5058403;28;20468;-79
2024/03/01 06:58:57;;;;;;;27.30;17.27;;;9.10;1.00;;;;;;5052051;28;20454;-77
2024/03/01 07:01:25;;;;;;;25.80;18.57;;;9.00;99.90;;;;;;5054076;28;20452;-78
2024/03/01 07:03:54;;;;;;;21.30;17.40;;;9.00;99.90;;;;;;5052549;28;20456;-79
2024/03/01 07:06:22;;;;;;;24.23;15.50;;;9.10;99.90;;;;;;5059769;28;20466;-78
2024/03/01 07:08:50;;;;;;;25.50;15.67;;;9.00;99.90;;;;;;5056006;28;20443;-80
2024/03/01 07:11:18;;;;;;;21.70;16.30;;;9.00;99.90;;;;;;5057375;28;20983;-78
2024/03/01 07:13:46;;;;;;;21.37;16.07;;;9.20;1.00;;;;;;5056097;28;20489;-78
2024/03/01 07:16:16;;;;;;;22.70;15.87;;;9.20;99.90;;;;;;5052039;28;20471;-77
2024/03/01 07:18:44;;;;;;;22.80;16.07;;;9.20;99.90;;;;;;5056134;28;20959;-77
2024/03/01 07:21:12;;;;;;;22.73;16.23;;;9.20;99.90;;;;;;5054971;28;21002;-78
2024/03/01 07:23:41;;;;;;;19.93;15.57;;;9.20;99.90;;;;;;5056310;28;20448;-78
2024/03/01 07:26:09;;;;;;;20.10;16.47;;;9.20;99.90;;;;;;5058603;28;20475;-78
2024/03/01 07:28:37;;;;;;;21.00;14.87;;;9.30;99.90;;;;;;5055895;28;20454;-78
2024/03/01 07:31:05;;;;;;;18.50;13.27;;;9.30;99.90;;;;;;5057608;28;20478;-78
2024/03/01 07:33:35;;;;;;;20.60;14.47;;;9.30;99.90;;;;;;5058520;28;20465;-79
2024/03/01 07:36:03;;;;;;;22.97;15.20;;;9.30;99.90;;;;;;5056712;28;20459;-78
2024/03/01 07:38:32;;;;;;;19.20;14.00;;;9.30;99.90;;;;;;5057086;28;20458;-79
2024/03/01 07:41:00;;;;;;;21.77;15.17;;;9.30;99.90;;;;;;5056685;28;20454;-78
2024/03/01 07:43:28;;;;;;;24.80;13.87;;;9.30;99.90;;;;;;5053348;28;20442;-77
2024/03/01 07:45:57;;;;;;;21.00;14.17;;;9.40;99.90;;;;;;5056493;28;20529;-77
2024/03/01 07:48:26;;;;;;;23.93;15.60;;;9.40;99.90;;;;;;5060775;28;20467;-78
2024/03/01 07:50:56;;;;;;;18.23;13.97;;;9.40;99.90;;;;;;5058021;28;20824;-78
2024/03/01 07:53:24;;;;;;;18.73;13.30;;;9.40;99.90;;;;;;5052903;28;20528;-79
2024/03/01 07:55:52;;;;;;;20.03;13.20;;;9.50;99.90;;;;;;5058546;28;20475;-79
2024/03/01 07:58:21;;;;;;;21.77;13.60;;;9.50;99.90;;;;;;5055091;28;20458;-77
2024/03/01 08:00:49;;;;;;;16.13;12.07;;;9.50;99.90;;;;;;5052938;28;20462;-79
2024/03/01 08:03:18;;;;;;;20.60;13.20;;;9.50;99.90;;;;;;5057223;28;20462;-78
2024/03/01 08:05:46;;;;;;;20.03;13.60;;;9.60;99.90;;;;;;5059477;28;21016;-77
2024/03/01 08:08:24;;;;;;;18.97;12.73;;;9.60;99.90;;;;;;5056884;28;20510;-78
2024/03/01 08:10:53;;;;;;;15.83;12.47;;;9.60;99.90;;;;;;5056114;28;20454;-80
2024/03/01 08:13:21;;;;;;;15.03;11.17;;;9.60;99.90;;;;;;5055554;28;20451;-80
2024/03/01 08:15:50;;;;;;;18.53;12.20;;;9.70;99.90;;;;;;5053233;28;21021;-80
2024/03/01 08:18:22;;;;;;;23.23;14.37;;;9.70;99.90;;;;;;5056328;28;20446;-78
2024/03/01 08:20:57;;;;;;;18.03;13.30;;;9.70;99.90;;;;;;5057711;28;20465;-78
2024/03/01 08:23:29;;;;;;;20.00;12.10;;;9.70;99.90;;;;;;5060012;28;20553;-78
2024/03/01 08:25:58;;;;;;;17.70;11.40;;;9.70;99.90;;;;;;5059967;28;20564;-80
2024/03/01 08:28:28;;;;;;;19.03;12.33;;;9.70;99.90;;;;;;5057313;28;20478;-78
2024/03/01 08:31:03;;;;;;;15.40;10.70;;;9.70;99.90;;;;;;5056718;28;20434;-76
2024/03/01 08:33:33;;;;;;;13.93;11.20;;;9.80;99.90;;;;;;5058637;28;20542;-80
2024/03/01 08:36:02;;;;;;;12.10;10.10;;;9.80;99.90;;;;;;5056202;28;20478;-77
2024/03/01 08:39:10;;;;;;;17.20;12.20;;;9.90;99.90;;;;;;5056077;28;20465;-81
2024/03/01 08:41:40;;;;;;;16.37;11.30;;;9.90;99.90;;;;;;5057493;28;20456;-79
2024/03/01 08:44:49;;;;;;;14.30;11.03;;;9.80;99.90;;;;;;5056687;28;20502;-80
2024/03/01 08:47:27;;;;;;;21.57;10.87;;;9.90;99.90;;;;;;5058031;28;20578;-79
2024/03/01 08:50:47;;;;;;;15.80;10.93;;;9.90;99.90;;;;;;5056508;28;20695;-80
2024/03/01 08:53:52;;;;;;;14.17;9.50;;;10.00;99.90;;;;;;5040498;28;20462;-81
2024/03/01 08:56:24;;;;;;;12.13;9.03;;;10.00;99.90;;;;;;5056332;28;20482;-79
2024/03/01 08:58:54;;;;;;;13.53;8.80;;;9.90;99.90;;;;;;5054407;28;20549;-79
2024/03/01 09:01:48;;;;;;;9.80;8.10;;;9.90;99.90;;;;;;5057611;28;20460;-80
2024/03/01 09:04:28;;;;;;;10.40;8.30;;;9.90;99.90;;;;;;5055367;28;20516;-78
2024/03/01 09:07:09;;;;;;;9.50;7.80;;;9.90;99.90;;;;;;5057310;28;20988;-80
2024/03/01 09:09:39;;;;;;;11.10;7.63;;;9.90;99.90;;;;;;5059006;28;20488;-79
2024/03/01 09:12:21;;;;;;;12.77;8.80;;;10.00;99.90;;;;;;5055996;28;20447;-79
2024/03/01 09:14:59;;;;;;;10.17;7.40;;;10.00;99.90;;;;;;5054486;28;20487;-79
2024/03/01 09:17:28;;;;;;;8.90;6.60;;;10.10;99.90;;;;;;5054489;28;21006;-79
2024/03/01 09:19:57;;;;;;;8.30;6.43;;;10.10;99.90;;;;;;5056948;28;20455;-78
2024/03/01 09:22:26;;;;;;;6.70;6.00;;;10.10;99.90;;;;;;5058049;28;20507;-79
2024/03/01 09:24:54;;;;;;;6.67;5.73;;;10.00;99.90;;;;;;5058874;28;21295;-79
2024/03/01 09:27:30;;;;;;;6.40;5.20;;;10.10;99.90;;;;;;5057254;28;20563;-79
2024/03/01 09:29:59;;;;;;;9.40;6.07;;;10.10;99.90;;;;;;5050396;28;20465;-80
2024/03/01 09:32:28;;;;;;;7.80;5.67;;;10.10;99.90;;;;;;5057857;28;20435;-80
2024/03/01 09:34:56;;;;;;;6.50;5.40;;;10.10;99.90;;;;;;5056071;28;21095;-79
2024/03/01 09:37:27;;;;;;;9.43;7.67;;;10.10;99.90;;;;;;5056327;28;20950;-82
2024/03/01 09:39:59;;;;;;;7.33;6.57;;;10.00;99.90;;;;;;5057701;28;20562;-81
2024/03/01 09:42:52;;;;;;;7.73;6.40;;;9.80;99.90;;;;;;5056680;28;20452;-79
2024/03/01 09:45:54;;;;;;;8.20;7.37;;;9.90;99.90;;;;;;5048179;28;20487;-78
2024/03/01 09:48:45;;;;;;;8.37;6.33;;;10.00;1.00;;;;;;5024962;28;20498;-79
2024/03/01 09:51:33;;;;;;;10.00;7.47;;;9.90;1.00;;;;;;5051931;28;20494;-80
2024/03/01 09:54:18;;;;;;;7.60;6.90;;;9.80;1.00;;;;;;5052990;28;20498;-79
2024/03/01 09:56:57;;;;;;;9.20;6.60;;;9.80;1.00;;;;;;5054034;28;20452;-77
2024/03/01 09:59:33;;;;;;;10.90;7.20;;;9.90;1.00;;;;;;5053670;28;20454;-78
2024/03/01 10:02:12;;;;;;;11.37;8.20;;;9.90;1.00;;;;;;5054967;28;20472;-79
2024/03/01 10:04:53;;;;;;;9.43;7.60;;;9.90;1.00;;;;;;5055156;28;20532;-81
2024/03/01 10:07:29;;;;;;;10.10;7.90;;;9.90;1.00;;;;;;5060991;28;20581;-80
2024/03/01 10:10:32;;;;;;;9.23;8.17;;;9.90;1.00;;;;;;5060154;28;21044;-79
2024/03/01 10:13:07;;;;;;;11.93;10.10;;;9.80;1.00;;;;;;5061296;28;20450;-79
2024/03/01 10:15:41;;;;;;;11.47;8.90;;;9.80;4.60;;;;;;5058466;28;20934;-77
2024/03/01 10:18:28;;;;;;;12.93;9.13;;;9.80;31.40;;;;;;5058749;28;21161;-82
2024/03/01 10:21:06;;;;;;;11.07;8.97;;;9.80;99.90;;;;;;5059516;28;20451;-79
2024/03/01 10:23:48;;;;;;;9.80;8.33;;;9.80;93.80;;;;;;5061655;28;20455;-78
2024/03/01 10:26:27;;;;;;;13.47;10.23;;;10.00;99.90;;;;;;5059133;28;20479;-78
2024/03/01 10:29:19;;;;;;;10.97;9.20;;;10.00;99.90;;;;;;5059082;28;20476;-79
2024/03/01 10:31:58;;;;;;;11.03;9.23;;;10.00;99.90;;;;;;5058639;28;20447;-78
2024/03/01 10:34:45;;;;;;;10.63;9.50;;;10.00;95.80;;;;;;5057511;28;20451;-80
2024/03/01 10:37:21;;;;;;;11.43;10.10;;;10.00;99.90;;;;;;5058891;28;20539;-79
2024/03/01 10:40:00;;;;;;;10.50;9.40;;;10.00;99.90;;;;;;5059091;28;20454;-78
2024/03/01 10:42:30;;;;;;;9.47;7.83;;;10.10;99.90;;;;;;5055460;28;20467;-78
2024/03/01 10:45:05;;;;;;;8.67;7.40;;;10.20;31.40;;;;;;5059241;28;20484;-79
2024/03/01 10:47:35;;;;;;;12.33;9.57;;;10.10;60.20;;;;;;5057005;28;20584;-80
2024/03/01 10:50:17;;;;;;;9.50;8.53;;;10.30;99.90;;;;;;5061605;28;20465;-79
2024/03/01 10:52:51;;;;;;;14.73;9.80;;;10.40;99.90;;;;;;5057726;28;20451;-81
2024/03/01 10:55:23;;;;;;;9.43;8.50;;;10.50;99.90;;;;;;5059316;28;21098;-82
2024/03/01 10:58:02;;;;;;;10.77;9.57;;;10.60;99.90;;;;;;5059247;28;20434;-79
2024/03/01 11:00:36;;;;;;;8.90;8.00;;;10.70;1.00;;;;;;5061282;28;20472;-77
2024/03/01 11:03:23;;;;;;;8.10;7.30;;;10.70;1.00;;;;;;5055667;28;20791;-78
2024/03/01 11:06:06;;;;;;;8.63;7.83;;;10.90;1.00;;;;;;5061859;28;20484;-78
2024/03/01 11:08:44;;;;;;;11.03;8.27;;;11.00;1.00;;;;;;5057433;28;21489;-80
2024/03/01 11:11:17;;;;;;;9.40;8.60;;;11.00;1.00;;;;;;5055200;28;20452;-79
2024/03/01 11:13:48;;;;;;;11.00;9.03;;;11.20;1.00;;;;;;5056261;28;20464;-80
2024/03/01 11:16:23;;;;;;;10.17;8.20;;;11.40;1.00;;;;;;5058821;28;20474;-80
2024/03/01 11:18:56;;;;;;;9.70;8.70;;;11.80;1.00;;;;;;5057625;28;20462;-80
2024/03/01 11:21:28;;;;;;;11.07;7.87;;;12.10;99.90;;;;;;5055675;28;20534;-80
2024/03/01 11:24:00;;;;;;;9.60;8.60;;;12.30;99.90;;;;;;5058215;28;20451;-79
2024/03/01 11:26:34;;;;;;;9.13;8.23;;;12.60;99.90;;;;;;5058160;28;20491;-82
2024/03/01 11:29:07;;;;;;;10.07;7.80;;;12.60;99.90;;;;;;5057585;28;20987;-80
2024/03/01 11:31:40;;;;;;;11.90;8.60;;;13.30;99.90;;;;;;5058155;28;20426;-78
2024/03/01 11:34:28;;;;;;;10.00;7.80;;;13.80;99.90;;;;;;5061880;28;20446;-80
2024/03/01 11:37:03;;;;;;;7.97;7.27;;;13.70;99.90;;;;;;5059851;28;21211;-79
2024/03/01 11:39:45;;;;;;;8.43;7.63;;;13.40;99.90;;;;;;5059458;28;20463;-82
2024/03/01 11:42:24;;;;;;;8.20;6.83;;;13.10;99.90;;;;;;5058087;28;20442;-80
2024/03/01 11:45:06;;;;;;;8.13;7.03;;;12.60;99.90;;;;;;5060167;28;21804;-79
2024/03/01 11:47:55;;;;;;;7.97;7.20;;;12.30;99.90;;;;;;5056161;28;20476;-80
2024/03/01 11:50:50;;;;;;;9.43;8.03;;;12.10;99.90;;;;;;5057145;28;20460;-79
2024/03/01 11:53:32;;;;;;;7.30;6.60;;;12.00;99.90;;;;;;5059053;28;20451;-80
2024/03/01 11:56:20;;;;;;;8.03;7.23;;;11.90;99.90;;;;;;5051776;28;20467;-80
2024/03/01 11:59:17;;;;;;;7.97;7.20;;;11.80;99.90;;;;;;5056090;28;20536;-80
2024/03/01 12:01:55;;;;;;;9.13;7.00;;;11.80;99.90;;;;;;5056111;28;20465;-81
2024/03/01 12:04:38;;;;;;;10.33;6.97;;;11.70;99.90;;;;;;5054874;28;20458;-79
2024/03/01 12:07:20;;;;;;;7.13;6.43;;;11.60;99.90;;;;;;5056841;28;20459;-78
2024/03/01 12:10:05;;;;;;;5.83;5.23;;;11.50;99.90;;;;;;5057659;28;20491;-80
2024/03/01 12:12:39;;;;;;;6.00;5.50;;;11.50;99.90;;;;;;5058656;28;20444;-79
2024/03/01 12:15:12;;;;;;;5.90;5.27;;;11.50;99.90;;;;;;5055982;28;20480;-80
2024/03/01 12:17:50;;;;;;;5.63;5.17;;;11.40;99.90;;;;;;5055003;28;20461;-79
2024/03/01 12:20:19;;;;;;;5.70;5.30;;;11.50;99.90;;;;;;5056127;28;20901;-81
2024/03/01 12:23:24;;;;;;;6.47;5.80;;;11.40;99.90;;;;;;5056336;28;20530;-79
2024/03/01 12:25:52;;;;;;;6.13;5.53;;;11.40;99.90;;;;;;5051385;28;20515;-81
2024/03/01 12:28:47;;;;;;;5.40;4.90;;;11.40;99.90;;;;;;5056624;28;20486;-79
2024/03/01 12:31:26;;;;;;;6.40;5.80;;;11.40;99.90;;;;;;5058036;28;20454;-79
2024/03/01 12:34:19;;;;;;;5.50;5.00;;;11.40;99.90;;;;;;5058434;28;20470;-80
2024/03/01 12:36:58;;;;;;;5.57;5.07;;;11.40;99.90;;;;;;5056330;28;20452;-77
2024/03/01 12:39:30;;;;;;;6.47;5.87;;;11.40;99.90;;;;;;5053693;28;20879;-78
2024/03/01 12:42:09;;;;;;;6.60;6.10;;;11.40;99.90;;;;;;5057071;28;20455;-78
2024/03/01 12:44:54;;;;;;;6.40;5.80;;;11.40;99.90;;;;;;5057260;28;20483;-80
2024/03/01 12:47:47;;;;;;;5.30;5.00;;;11.30;99.90;;;;;;5054232;28;20447;-79
2024/03/01 12:50:29;;;;;;;6.07;5.57;;;11.30;99.90;;;;;;5055624;28;20464;-79
2024/03/01 12:53:31;;;;;;;5.73;5.17;;;11.30;99.90;;;;;;5053971;28;20458;-80
2024/03/01 12:56:06;;;;;;;6.13;5.50;;;11.20;99.90;;;;;;5054946;28;21030;-78
2024/03/01 12:58:52;;;;;;;7.07;6.57;;;11.10;99.90;;;;;;5053928;28;20463;-77
2024/03/01 13:01:28;;;;;;;5.57;5.10;;;11.10;99.90;;;;;;5052794;28;20524;-81
2024/03/01 13:04:09;;;;;;;6.47;5.97;;;11.10;99.90;;;;;;5055488;28;20455;-79
2024/03/01 13:06:37;;;;;;;7.77;6.60;;;11.20;99.90;;;;;;5054131;28;20466;-77
2024/03/01 13:09:14;;;;;;;6.00;5.57;;;11.20;99.90;;;;;;5055692;28;20569;-78
2024/03/01 13:11:45;;;;;;;5.53;5.13;;;11.30;99.90;;;;;;5053166;28;20558;-77